Hlavní strana
METAR-TAF:

METAR-TAF

Letiště :

Skellefteå, Švédsko

zeměpisná šířka: 64-38N, zeměpisná délka: 021-05E, výška: 49 m

Aktuální stav počasí

Zpráva byla vytvořena před 27 minutami, v 15:50 UTC
Jihojihozápadní vítr 6 kt, proměnlivý mezi jižním a západojihozápadním
Teplota 7°C
Vlhkost vzduchu 61%
Tlak 1016 hPa
Viditelnost 10 km a více
Žádná oblačnost pod 1500 m, nevyskytují se cumulonimby.

METAR: ESNS 281550Z 21006KT 180V250 CAVOK 07/00 Q1016

Čas: 17:17 (16:17 UTC)

Předpověď počasí

Zpráva byla vytvořena před 1 hodinou a 47 minutami, v 14:30 UTC
Předpověď platná od 28 v 15 UTC do 28 v 19 UTC
Západní vítr 12 kt
Viditelnost 10 km a více
Žádná oblačnost pod 1500 m, nevyskytují se cumulonimby.
Pravděpodobnost 40%
od 28 v 15 UTC do 28 v 19 UTC
Západní vítr 15 kt s nárazy do 25 kt

TAF: ESNS 281430Z 2815/2819 28012KT CAVOK PROB40 2815/2819 28015G25KT

Stav a předpovědi počasí z více než 4 000 letišť (zprávy METAR a TAF).

Červené a žluté tečky na mapě představují dostupné meteorologické stanice.

Když kurzor umístíte na tečku, zobrazí se název stanice.

Pak kliknutím zobrazíte stav a předpověď počasí.

Chcete-li změnit mapu, kliknutím na zelené tlačítko se znaménkem +mapu přiblížíte, kliknutím na zelené tlačítko se znaménkem – mapu oddálíte a kliknutím na zelené šipky přejdete na sousední mapy.


METAR-TAF: